KSSF/SSF METAR and TAF weather

Enter ICAO airport designator
Station Type Date Time Source
KSSF METAR 2020/01/18 15:53 UTC NOAA

KSSF 181553Z 33004KT 10SM SCT018 BKN060 OVC080 20/18 A3018 RMK AO2 SLP215 T02000183


Station Type Date Time Source
KSSF Decoded METAR 2020/01/18 15:53 UTC NOAA

SAN ANTONIO STINSON MUNI, TX, United States (KSSF) 29-20N 098-28W 176M
Jan 18, 2020 - 10:53 AM EST / 2020.01.18 1553 UTC
Wind: from the NNW (330 degrees) at 5 MPH (4 KT):0
Visibility: 10 mile(s):0
Sky conditions: overcast
Temperature: 68.0 F (20.0 C)
Dew Point: 64.9 F (18.3 C)
Relative Humidity: 89%
Pressure (altimeter): 30.18 in. Hg (1022 hPa)
ob: KSSF 181553Z 33004KT 10SM SCT018 BKN060 OVC080 20/18 A3018 RMK AO2 SLP215 T02000183
cycle: 16

Station Type Date Time Source
KSSF TAF 2020/01/18 15:58 UTC NOAA

TAF
AMD KSSF 181456Z 1815/1912 36006KT 6SM BR VCSH BKN012 OVC035
FM181700 01012KT P6SM BKN035
FM181900 01014KT P6SM FEW035
FM190100 01011KT P6SM SKC

Example: see airport list